createdAt,value
2019-03-21T00:00:02.445Z,1028.23
2019-03-21T00:00:28.577Z,1028.25
2019-03-21T00:00:54.930Z,1028.22
2019-03-21T00:01:21.047Z,1028.23
2019-03-21T00:01:47.150Z,1028.24
2019-03-21T00:02:13.288Z,1028.25
2019-03-21T00:02:39.392Z,1028.2
2019-03-21T00:03:05.500Z,1028.25
2019-03-21T00:03:31.599Z,1028.23
2019-03-21T00:03:57.740Z,1028.24
2019-03-21T00:04:23.850Z,1028.25
2019-03-21T00:04:49.964Z,1028.23
2019-03-21T00:05:16.068Z,1028.24
2019-03-21T00:05:42.219Z,1028.23
2019-03-21T00:06:08.351Z,1028.21
2019-03-21T00:06:34.468Z,1028.21
2019-03-21T00:07:00.598Z,1028.19
2019-03-21T00:07:26.702Z,1028.22
2019-03-21T00:07:52.811Z,1028.22
2019-03-21T00:08:19.058Z,1028.22
2019-03-21T00:08:45.165Z,1028.22
2019-03-21T00:09:11.316Z,1028.19
2019-03-21T00:09:37.462Z,1028.21
2019-03-21T00:10:03.577Z,1028.22
2019-03-21T00:10:29.685Z,1028.21
2019-03-21T00:10:55.796Z,1028.21
2019-03-21T00:11:21.899Z,1028.25
2019-03-21T00:11:48.021Z,1028.25
2019-03-21T00:12:14.131Z,1028.25
2019-03-21T00:12:40.239Z,1028.24
2019-03-21T00:13:06.530Z,1028.26
2019-03-21T00:13:32.647Z,1028.27
2019-03-21T00:14:06.553Z,1028.26
2019-03-21T00:14:26.861Z,1028.24
2019-03-21T00:14:53.044Z,1028.27
2019-03-21T00:15:19.103Z,1028.25
2019-03-21T00:15:45.217Z,1028.23
2019-03-21T00:16:13.489Z,1028.21
2019-03-21T00:16:38.646Z,1028.22
2019-03-21T00:17:04.962Z,1028.23
2019-03-21T00:17:31.115Z,1028.22
2019-03-21T00:17:57.243Z,1028.23
2019-03-21T00:18:23.711Z,1028.22
2019-03-21T00:18:49.936Z,1028.22
2019-03-21T00:19:15.998Z,1028.21
2019-03-21T00:19:42.259Z,1028.24
2019-03-21T00:20:08.412Z,1028.21
2019-03-21T00:20:34.547Z,1028.24
2019-03-21T00:21:00.761Z,1028.21
2019-03-21T00:21:26.895Z,1028.24
2019-03-21T00:21:53.007Z,1028.26
2019-03-21T00:22:19.150Z,1028.23
2019-03-21T00:22:45.277Z,1028.24
2019-03-21T00:23:11.385Z,1028.22
2019-03-21T00:23:37.491Z,1028.22
2019-03-21T00:24:03.591Z,1028.2
2019-03-21T00:24:29.689Z,1028.19
2019-03-21T00:24:55.804Z,1028.19
2019-03-21T00:25:21.905Z,1028.19
2019-03-21T00:25:49.652Z,1028.17
2019-03-21T00:26:16.764Z,1028.18
2019-03-21T00:26:43.231Z,1028.2
2019-03-21T00:27:09.565Z,1028.18
2019-03-21T00:27:35.899Z,1028.2
2019-03-21T00:28:02.017Z,1028.21
2019-03-21T00:28:28.468Z,1028.21
2019-03-21T00:28:54.562Z,1028.18
2019-03-21T00:29:20.640Z,1028.2
2019-03-21T00:29:48.377Z,1028.17
2019-03-21T00:30:14.881Z,1028.2
2019-03-21T00:30:41.343Z,1028.19
2019-03-21T00:31:07.851Z,1028.19
2019-03-21T00:31:35.072Z,1028.18
2019-03-21T00:32:01.632Z,1028.16
2019-03-21T00:32:27.952Z,1028.19
2019-03-21T00:32:54.572Z,1028.17
2019-03-21T00:33:21.790Z,1028.15
2019-03-21T00:33:48.182Z,1028.19
2019-03-21T00:34:14.797Z,1028.17
2019-03-21T00:34:41.905Z,1028.17
2019-03-21T00:35:09.428Z,1028.19
2019-03-21T00:35:38.562Z,1028.19
2019-03-21T00:36:05.275Z,1028.23
2019-03-21T00:36:33.280Z,1028.18
2019-03-21T00:37:01.043Z,1028.19
2019-03-21T00:37:28.790Z,1028.17
2019-03-21T00:37:56.691Z,1028.17
2019-03-21T00:38:24.528Z,1028.13
2019-03-21T00:38:52.562Z,1028.17
2019-03-21T00:39:20.121Z,1028.2
2019-03-21T00:39:48.135Z,1028.15
2019-03-21T00:40:15.531Z,1028.18
2019-03-21T00:40:44.080Z,1028.14
2019-03-21T00:41:11.279Z,1028.12
2019-03-21T00:41:39.300Z,1028.13
2019-03-21T00:42:07.150Z,1028.14
2019-03-21T00:42:35.000Z,1028.16
2019-03-21T00:43:02.808Z,1028.16
2019-03-21T00:43:30.716Z,1028.13
2019-03-21T00:43:58.547Z,1028.16
2019-03-21T00:44:26.506Z,1028.18
2019-03-21T00:44:53.829Z,1028.17
2019-03-21T00:45:21.716Z,1028.16
2019-03-21T00:45:49.202Z,1028.15
2019-03-21T00:46:16.824Z,1028.16
2019-03-21T00:46:44.822Z,1028.12
2019-03-21T00:47:12.903Z,1028.14
2019-03-21T00:47:40.568Z,1028.1
2019-03-21T00:48:08.318Z,1028.11
2019-03-21T00:48:35.970Z,1028.1
2019-03-21T00:49:03.042Z,1028.12
2019-03-21T00:49:29.823Z,1028.12
2019-03-21T00:49:57.172Z,1028.13
2019-03-21T00:50:24.981Z,1028.12
2019-03-21T00:50:52.869Z,1028.1
2019-03-21T00:51:20.625Z,1028.1
2019-03-21T00:51:48.298Z,1028.1
2019-03-21T00:52:15.847Z,1028.07
2019-03-21T00:52:43.727Z,1028.08
2019-03-21T00:53:11.696Z,1028.08
2019-03-21T00:53:39.416Z,1028.11
2019-03-21T00:54:07.006Z,1028.11
2019-03-21T00:54:34.854Z,1028.08
2019-03-21T00:55:01.437Z,1028.1
2019-03-21T00:55:27.579Z,1028.07
2019-03-21T00:55:54.814Z,1028.06
2019-03-21T00:56:20.882Z,1028.07
2019-03-21T00:56:47.440Z,1028.08
2019-03-21T00:57:13.999Z,1028.02
2019-03-21T00:57:42.107Z,1028.03
2019-03-21T00:58:10.116Z,1028.03
2019-03-21T00:58:38.055Z,1028.02
2019-03-21T00:59:05.157Z,1028.05
2019-03-21T00:59:31.770Z,1028.01
2019-03-21T00:59:58.290Z,1028.01
2019-03-21T01:00:25.338Z,1027.98
2019-03-21T01:00:52.735Z,1027.99
2019-03-21T01:01:20.346Z,1027.97
2019-03-21T01:01:47.697Z,1027.97
2019-03-21T01:02:15.450Z,1027.99
2019-03-21T01:02:43.066Z,1027.99
2019-03-21T01:03:10.260Z,1027.98
2019-03-21T01:03:37.154Z,1027.99
2019-03-21T01:04:04.718Z,1028.01
2019-03-21T01:04:32.266Z,1027.96
2019-03-21T01:04:59.028Z,1027.98
2019-03-21T01:05:26.009Z,1027.98
2019-03-21T01:05:54.139Z,1027.95
2019-03-21T01:06:22.060Z,1027.98
2019-03-21T01:06:49.491Z,1027.95
2019-03-21T01:07:17.504Z,1027.89
2019-03-21T01:07:45.561Z,1027.91
2019-03-21T01:08:12.944Z,1027.93
2019-03-21T01:08:40.623Z,1027.94
2019-03-21T01:09:07.452Z,1027.92
2019-03-21T01:09:35.369Z,1027.95
2019-03-21T01:10:02.974Z,1027.93
2019-03-21T01:10:30.199Z,1027.93
2019-03-21T01:10:56.992Z,1027.95
2019-03-21T01:11:24.645Z,1027.95
2019-03-21T01:11:52.313Z,1027.94
2019-03-21T01:12:48.228Z,1027.92
2019-03-21T01:13:16.233Z,1027.91
2019-03-21T01:13:43.933Z,1027.93
2019-03-21T01:14:11.685Z,1027.93
2019-03-21T01:14:39.527Z,1027.88
2019-03-21T01:15:07.235Z,1027.92
2019-03-21T01:15:35.021Z,1027.93
2019-03-21T01:16:02.884Z,1027.89
2019-03-21T01:16:30.659Z,1027.86
2019-03-21T01:16:58.376Z,1027.87
2019-03-21T01:17:26.137Z,1027.85
2019-03-21T01:17:54.108Z,1027.84
2019-03-21T01:18:22.173Z,1027.85
2019-03-21T01:18:49.928Z,1027.83
2019-03-21T01:19:17.948Z,1027.84
2019-03-21T01:19:45.835Z,1027.84
2019-03-21T01:20:13.591Z,1027.82
2019-03-21T01:20:41.533Z,1027.82
2019-03-21T01:21:09.462Z,1027.87
2019-03-21T01:21:37.357Z,1027.83
2019-03-21T01:22:05.313Z,1027.86
2019-03-21T01:22:33.233Z,1027.87
2019-03-21T01:23:00.968Z,1027.85
2019-03-21T01:23:28.720Z,1027.85
2019-03-21T01:23:56.428Z,1027.84
2019-03-21T01:24:24.309Z,1027.87
2019-03-21T01:24:52.119Z,1027.85
2019-03-21T01:25:20.209Z,1027.83
2019-03-21T01:25:47.980Z,1027.84
2019-03-21T01:26:15.922Z,1027.82
2019-03-21T01:26:44.148Z,1027.83
2019-03-21T01:27:12.062Z,1027.8
2019-03-21T01:27:40.098Z,1027.82
2019-03-21T01:28:07.834Z,1027.82
2019-03-21T01:28:35.859Z,1027.81
2019-03-21T01:29:03.685Z,1027.78
2019-03-21T01:29:31.427Z,1027.82
2019-03-21T01:29:59.377Z,1027.8
2019-03-21T01:30:27.330Z,1027.8
2019-03-21T01:30:55.133Z,1027.81
2019-03-21T01:31:23.022Z,1027.78
2019-03-21T01:31:50.867Z,1027.76
2019-03-21T01:32:18.538Z,1027.73
2019-03-21T01:32:46.423Z,1027.72
2019-03-21T01:33:14.391Z,1027.77
2019-03-21T01:33:42.259Z,1027.74
2019-03-21T01:34:10.090Z,1027.71
2019-03-21T01:34:37.882Z,1027.72
2019-03-21T01:35:05.568Z,1027.71
2019-03-21T01:35:33.466Z,1027.7
2019-03-21T01:36:01.267Z,1027.71
2019-03-21T01:36:29.106Z,1027.69
2019-03-21T01:36:56.944Z,1027.69
2019-03-21T01:37:24.846Z,1027.7
2019-03-21T01:37:52.898Z,1027.65
2019-03-21T01:38:20.649Z,1027.7
2019-03-21T01:38:48.452Z,1027.71
2019-03-21T01:39:16.323Z,1027.65
2019-03-21T01:39:44.182Z,1027.67
2019-03-21T01:40:12.162Z,1027.69
2019-03-21T01:40:40.186Z,1027.72
2019-03-21T01:41:07.965Z,1027.68
2019-03-21T01:41:36.085Z,1027.67
2019-03-21T01:42:03.771Z,1027.71
2019-03-21T01:42:31.573Z,1027.67
2019-03-21T01:42:59.322Z,1027.66
2019-03-21T01:43:27.257Z,1027.68
2019-03-21T01:43:53.890Z,1027.69
2019-03-21T01:44:20.299Z,1027.67
2019-03-21T01:44:48.077Z,1027.7
2019-03-21T01:45:14.870Z,1027.7
2019-03-21T01:45:41.850Z,1027.64
2019-03-21T01:46:08.687Z,1027.68
2019-03-21T01:46:35.219Z,1027.66
2019-03-21T01:47:01.333Z,1027.7
2019-03-21T01:47:28.059Z,1027.74
2019-03-21T01:47:54.916Z,1027.77
2019-03-21T01:48:21.836Z,1027.75
2019-03-21T01:48:48.384Z,1027.76
2019-03-21T01:49:15.530Z,1027.77
2019-03-21T01:49:43.053Z,1027.74
2019-03-21T01:50:09.394Z,1027.75
2019-03-21T01:50:35.506Z,1027.73
2019-03-21T01:51:01.968Z,1027.74
2019-03-21T01:51:28.063Z,1027.71
2019-03-21T01:51:54.906Z,1027.71
2019-03-21T01:52:21.543Z,1027.74
2019-03-21T01:52:49.828Z,1027.69
2019-03-21T01:53:17.920Z,1027.68
2019-03-21T01:53:46.099Z,1027.69
2019-03-21T01:54:14.067Z,1027.74
2019-03-21T01:54:41.510Z,1027.74
2019-03-21T01:55:08.601Z,1027.74
2019-03-21T01:55:34.938Z,1027.69
2019-03-21T01:56:01.317Z,1027.7
2019-03-21T01:56:27.815Z,1027.72
2019-03-21T01:56:53.916Z,1027.7
2019-03-21T01:57:20.314Z,1027.68
2019-03-21T01:57:47.109Z,1027.69
2019-03-21T01:58:13.668Z,1027.66
2019-03-21T01:58:40.818Z,1027.69
2019-03-21T01:59:07.236Z,1027.65
2019-03-21T01:59:33.858Z,1027.67
2019-03-21T02:00:01.418Z,1027.67
2019-03-21T02:00:27.780Z,1027.68
2019-03-21T02:00:54.444Z,1027.64
2019-03-21T02:01:21.348Z,1027.64
2019-03-21T02:01:47.564Z,1027.64
2019-03-21T02:02:14.479Z,1027.63
2019-03-21T02:02:40.987Z,1027.64
2019-03-21T02:03:07.072Z,1027.66
2019-03-21T02:03:34.244Z,1027.66
2019-03-21T02:04:01.281Z,1027.64
2019-03-21T02:04:28.633Z,1027.63
2019-03-21T02:04:55.647Z,1027.63
2019-03-21T02:05:22.422Z,1027.61
2019-03-21T02:05:49.424Z,1027.63
2019-03-21T02:06:16.482Z,1027.64
2019-03-21T02:06:43.954Z,1027.64
2019-03-21T02:07:10.684Z,1027.61
2019-03-21T02:07:38.369Z,1027.63
2019-03-21T02:08:06.386Z,1027.61
2019-03-21T02:08:33.073Z,1027.63
2019-03-21T02:09:00.853Z,1027.6
2019-03-21T02:09:28.528Z,1027.59
2019-03-21T02:09:56.180Z,1027.6
2019-03-21T02:10:23.575Z,1027.58
2019-03-21T02:10:50.156Z,1027.58
2019-03-21T02:11:17.595Z,1027.58
2019-03-21T02:11:45.398Z,1027.56
2019-03-21T02:12:12.947Z,1027.56
2019-03-21T02:12:40.408Z,1027.56
2019-03-21T02:13:07.477Z,1027.58
2019-03-21T02:13:34.565Z,1027.57
2019-03-21T02:14:02.062Z,1027.57
2019-03-21T02:14:29.870Z,1027.59
2019-03-21T02:14:57.694Z,1027.58
2019-03-21T02:15:25.123Z,1027.57
2019-03-21T02:15:52.508Z,1027.6
2019-03-21T02:16:18.925Z,1027.57
2019-03-21T02:16:46.288Z,1027.59
2019-03-21T02:17:13.415Z,1027.56
2019-03-21T02:17:40.022Z,1027.56
2019-03-21T02:18:08.239Z,1027.6
2019-03-21T02:18:36.240Z,1027.57
2019-03-21T02:19:03.225Z,1027.55
2019-03-21T02:19:30.258Z,1027.55
2019-03-21T02:19:57.794Z,1027.56
2019-03-21T02:20:24.897Z,1027.55
2019-03-21T02:20:51.586Z,1027.56
2019-03-21T02:21:18.640Z,1027.53
2019-03-21T02:21:45.865Z,1027.53
2019-03-21T02:22:12.876Z,1027.51
2019-03-21T02:22:40.497Z,1027.54
2019-03-21T02:23:08.026Z,1027.54
2019-03-21T02:23:35.190Z,1027.53
2019-03-21T02:24:01.509Z,1027.56
2019-03-21T02:24:28.920Z,1027.56
2019-03-21T02:24:56.717Z,1027.56
2019-03-21T02:25:24.041Z,1027.51
2019-03-21T02:25:51.297Z,1027.53
2019-03-21T02:26:18.973Z,1027.52
2019-03-21T02:26:46.941Z,1027.52
2019-03-21T02:27:14.812Z,1027.53
2019-03-21T02:27:42.650Z,1027.51
2019-03-21T02:28:10.370Z,1027.53
2019-03-21T02:28:38.451Z,1027.52
2019-03-21T02:29:06.283Z,1027.52
2019-03-21T02:29:34.219Z,1027.53
2019-03-21T02:30:01.966Z,1027.5
2019-03-21T02:30:29.851Z,1027.51
2019-03-21T02:30:58.054Z,1027.53
2019-03-21T02:31:26.047Z,1027.54
2019-03-21T02:31:53.351Z,1027.56
2019-03-21T02:32:20.879Z,1027.55
2019-03-21T02:32:47.586Z,1027.56
2019-03-21T02:33:14.028Z,1027.55
2019-03-21T02:33:40.989Z,1027.58
2019-03-21T02:34:07.112Z,1027.58
2019-03-21T02:34:33.207Z,1027.55
2019-03-21T02:35:00.536Z,1027.61
2019-03-21T02:35:26.510Z,1027.59
2019-03-21T02:35:52.695Z,1027.57
2019-03-21T02:36:18.801Z,1027.59
2019-03-21T02:36:45.572Z,1027.56
2019-03-21T02:37:11.978Z,1027.62
2019-03-21T02:37:39.844Z,1027.56
2019-03-21T02:38:06.240Z,1027.58
2019-03-21T02:38:33.056Z,1027.52
2019-03-21T02:38:59.234Z,1027.5
2019-03-21T02:39:26.213Z,1027.51
2019-03-21T02:39:59.129Z,1027.54
2019-03-21T02:40:21.071Z,1027.52
2019-03-21T02:40:48.095Z,1027.52
2019-03-21T02:41:14.451Z,1027.55
2019-03-21T02:41:41.942Z,1027.55
2019-03-21T02:42:08.827Z,1027.53
2019-03-21T02:42:35.233Z,1027.51
2019-03-21T02:43:01.326Z,1027.53
2019-03-21T02:43:28.294Z,1027.51
2019-03-21T02:43:55.120Z,1027.53
2019-03-21T02:44:21.271Z,1027.52
2019-03-21T02:44:47.458Z,1027.55
2019-03-21T02:45:15.094Z,1027.51
2019-03-21T02:45:41.167Z,1027.53
2019-03-21T02:46:07.280Z,1027.51
2019-03-21T02:46:33.413Z,1027.5
2019-03-21T02:46:59.578Z,1027.49
2019-03-21T02:47:25.715Z,1027.5
2019-03-21T02:47:51.863Z,1027.49
2019-03-21T02:48:18.028Z,1027.49
2019-03-21T02:48:44.199Z,1027.49
2019-03-21T02:49:10.340Z,1027.48
2019-03-21T02:49:36.515Z,1027.45
2019-03-21T02:50:02.649Z,1027.47
2019-03-21T02:50:28.816Z,1027.49
2019-03-21T02:50:54.946Z,1027.46
2019-03-21T02:51:21.080Z,1027.45
2019-03-21T02:51:47.228Z,1027.43
2019-03-21T02:52:13.355Z,1027.47
2019-03-21T02:52:39.503Z,1027.48
2019-03-21T02:53:05.629Z,1027.5
2019-03-21T02:53:31.770Z,1027.48
2019-03-21T02:53:57.901Z,1027.46
2019-03-21T02:54:24.044Z,1027.49
2019-03-21T02:54:50.153Z,1027.47
2019-03-21T02:55:16.330Z,1027.49
2019-03-21T02:55:42.469Z,1027.46
2019-03-21T02:56:08.569Z,1027.47
2019-03-21T02:56:34.673Z,1027.5
2019-03-21T02:57:00.801Z,1027.51
2019-03-21T02:57:26.915Z,1027.52
2019-03-21T02:57:53.053Z,1027.51
2019-03-21T02:58:19.160Z,1027.51
2019-03-21T02:58:45.348Z,1027.53
2019-03-21T02:59:11.458Z,1027.52
2019-03-21T02:59:37.646Z,1027.55
2019-03-21T03:00:03.789Z,1027.54
2019-03-21T03:00:29.904Z,1027.49
2019-03-21T03:00:56.041Z,1027.51
2019-03-21T03:01:22.148Z,1027.5
2019-03-21T03:01:48.258Z,1027.51
2019-03-21T03:02:14.364Z,1027.54
2019-03-21T03:02:41.499Z,1027.57
2019-03-21T03:03:07.661Z,1027.52
2019-03-21T03:03:33.767Z,1027.54
2019-03-21T03:03:59.879Z,1027.51
2019-03-21T03:04:26.028Z,1027.53
2019-03-21T03:04:52.155Z,1027.48
2019-03-21T03:05:18.288Z,1027.5
2019-03-21T03:05:44.393Z,1027.48
2019-03-21T03:06:10.499Z,1027.45
2019-03-21T03:06:36.665Z,1027.47
2019-03-21T03:07:02.809Z,1027.5
2019-03-21T03:07:28.968Z,1027.47
2019-03-21T03:07:55.105Z,1027.5
2019-03-21T03:08:21.211Z,1027.48
2019-03-21T03:08:47.372Z,1027.49
2019-03-21T03:09:13.506Z,1027.52
2019-03-21T03:09:39.639Z,1027.5
2019-03-21T03:10:05.795Z,1027.55
2019-03-21T03:10:31.906Z,1027.51
2019-03-21T03:10:58.042Z,1027.53
2019-03-21T03:11:25.155Z,1027.5
2019-03-21T03:11:51.342Z,1027.48
2019-03-21T03:12:17.480Z,1027.53
2019-03-21T03:12:43.619Z,1027.5
2019-03-21T03:13:09.726Z,1027.5
2019-03-21T03:13:35.858Z,1027.53
2019-03-21T03:14:04.413Z,1027.56
2019-03-21T03:14:29.118Z,1027.53
2019-03-21T03:14:55.240Z,1027.51
2019-03-21T03:15:23.708Z,1027.51
2019-03-21T03:15:49.823Z,1027.54
2019-03-21T03:16:15.987Z,1027.55
2019-03-21T03:16:42.120Z,1027.56
2019-03-21T03:17:08.258Z,1027.53
2019-03-21T03:17:34.389Z,1027.56
2019-03-21T03:18:00.554Z,1027.54
2019-03-21T03:18:26.728Z,1027.59
2019-03-21T03:18:52.890Z,1027.58
2019-03-21T03:19:19.023Z,1027.59
2019-03-21T03:19:45.212Z,1027.58
2019-03-21T03:20:11.370Z,1027.59
2019-03-21T03:20:37.472Z,1027.57
2019-03-21T03:21:03.588Z,1027.57
2019-03-21T03:21:29.715Z,1027.59
2019-03-21T03:21:55.857Z,1027.61
2019-03-21T03:22:22.025Z,1027.62
2019-03-21T03:22:48.172Z,1027.61
2019-03-21T03:23:14.345Z,1027.62
2019-03-21T03:23:40.451Z,1027.59
2019-03-21T03:24:06.612Z,1027.65
2019-03-21T03:24:32.721Z,1027.57
2019-03-21T03:24:58.914Z,1027.61
2019-03-21T03:25:25.110Z,1027.59
2019-03-21T03:25:51.635Z,1027.65
2019-03-21T03:26:17.408Z,1027.63
2019-03-21T03:26:43.562Z,1027.6
2019-03-21T03:27:09.674Z,1027.63
2019-03-21T03:27:35.786Z,1027.62
2019-03-21T03:28:01.927Z,1027.64
2019-03-21T03:28:28.056Z,1027.64
2019-03-21T03:28:54.200Z,1027.64
2019-03-21T03:29:20.302Z,1027.64
2019-03-21T03:29:46.418Z,1027.67
2019-03-21T03:30:12.579Z,1027.64
2019-03-21T03:30:38.758Z,1027.68
2019-03-21T03:31:04.866Z,1027.66
2019-03-21T03:31:31.133Z,1027.67
2019-03-21T03:31:57.241Z,1027.67
2019-03-21T03:32:23.349Z,1027.68
2019-03-21T03:32:49.544Z,1027.7
2019-03-21T03:33:15.697Z,1027.7
2019-03-21T03:33:41.829Z,1027.71
2019-03-21T03:34:07.962Z,1027.69
2019-03-21T03:34:34.152Z,1027.67
2019-03-21T03:35:00.854Z,1027.68
2019-03-21T03:35:27.114Z,1027.7
2019-03-21T03:35:53.277Z,1027.7
2019-03-21T03:36:19.411Z,1027.73
2019-03-21T03:36:45.548Z,1027.73
2019-03-21T03:37:11.684Z,1027.75
2019-03-21T03:37:37.819Z,1027.73
2019-03-21T03:38:03.957Z,1027.74
2019-03-21T03:38:30.061Z,1027.76
2019-03-21T03:38:56.206Z,1027.75
2019-03-21T03:39:22.341Z,1027.75
2019-03-21T03:39:48.506Z,1027.77
2019-03-21T03:40:14.621Z,1027.79
2019-03-21T03:40:40.729Z,1027.81
2019-03-21T03:41:06.901Z,1027.8
2019-03-21T03:41:32.996Z,1027.82
2019-03-21T03:41:59.181Z,1027.8
2019-03-21T03:42:25.272Z,1027.8
2019-03-21T03:42:51.444Z,1027.78
2019-03-21T03:43:17.605Z,1027.79
2019-03-21T03:43:43.742Z,1027.83
2019-03-21T03:44:09.888Z,1027.86
2019-03-21T03:44:36.056Z,1027.87
2019-03-21T03:45:02.204Z,1027.86
2019-03-21T03:45:37.065Z,1027.87
2019-03-21T03:45:57.447Z,1027.82
2019-03-21T03:46:23.621Z,1027.83
2019-03-21T03:46:49.756Z,1027.83
2019-03-21T03:47:15.926Z,1027.86
2019-03-21T03:47:42.036Z,1027.81
2019-03-21T03:48:08.146Z,1027.82
2019-03-21T03:48:34.290Z,1027.85
2019-03-21T03:49:00.423Z,1027.86
2019-03-21T03:49:26.556Z,1027.84
2019-03-21T03:49:52.701Z,1027.86
2019-03-21T03:50:18.866Z,1027.85
2019-03-21T03:50:44.979Z,1027.84
2019-03-21T03:51:11.118Z,1027.85
2019-03-21T03:51:37.271Z,1027.85
2019-03-21T03:52:03.389Z,1027.8
2019-03-21T03:52:29.491Z,1027.85
2019-03-21T03:52:55.597Z,1027.82
2019-03-21T03:53:21.733Z,1027.84
2019-03-21T03:53:48.083Z,1027.82
2019-03-21T03:54:14.269Z,1027.84
2019-03-21T03:54:40.379Z,1027.85
2019-03-21T03:55:06.482Z,1027.86
2019-03-21T03:55:32.657Z,1027.86
2019-03-21T03:55:58.790Z,1027.84
2019-03-21T03:56:24.892Z,1027.86
2019-03-21T03:56:51.003Z,1027.86
2019-03-21T03:57:17.148Z,1027.85
2019-03-21T03:57:43.259Z,1027.81
2019-03-21T03:58:09.397Z,1027.79
2019-03-21T03:58:35.540Z,1027.84
2019-03-21T03:59:01.642Z,1027.81
2019-03-21T03:59:27.770Z,1027.81
2019-03-21T03:59:53.936Z,1027.82
2019-03-21T04:00:20.076Z,1027.81
2019-03-21T04:00:46.211Z,1027.8
2019-03-21T04:01:12.343Z,1027.79
2019-03-21T04:01:38.554Z,1027.78
2019-03-21T04:02:04.692Z,1027.77
2019-03-21T04:02:30.798Z,1027.78
2019-03-21T04:02:56.905Z,1027.77
2019-03-21T04:03:23.042Z,1027.76
2019-03-21T04:03:49.149Z,1027.76
2019-03-21T04:04:15.319Z,1027.77
2019-03-21T04:04:41.513Z,1027.72
2019-03-21T04:05:07.652Z,1027.73
2019-03-21T04:05:33.765Z,1027.75
2019-03-21T04:05:59.899Z,1027.72
2019-03-21T04:06:26.104Z,1027.73
2019-03-21T04:06:52.218Z,1027.74
2019-03-21T04:07:18.344Z,1027.73
2019-03-21T04:07:44.479Z,1027.73
2019-03-21T04:08:10.622Z,1027.75
2019-03-21T04:08:36.761Z,1027.78
2019-03-21T04:09:02.914Z,1027.76
2019-03-21T04:09:29.038Z,1027.74
2019-03-21T04:09:55.180Z,1027.78
2019-03-21T04:10:21.429Z,1027.78
2019-03-21T04:10:47.608Z,1027.79
2019-03-21T04:11:13.779Z,1027.77
2019-03-21T04:11:39.911Z,1027.76
2019-03-21T04:12:06.022Z,1027.74
2019-03-21T04:12:32.127Z,1027.74
2019-03-21T04:12:58.258Z,1027.74
2019-03-21T04:13:24.380Z,1027.72
2019-03-21T04:13:50.523Z,1027.74
2019-03-21T04:14:16.653Z,1027.73
2019-03-21T04:14:42.887Z,1027.76
2019-03-21T04:15:09.029Z,1027.74
2019-03-21T04:15:35.246Z,1027.72
2019-03-21T04:16:02.343Z,1027.7
2019-03-21T04:16:28.514Z,1027.69
2019-03-21T04:16:54.621Z,1027.68
2019-03-21T04:17:20.750Z,1027.7
2019-03-21T04:17:46.856Z,1027.68
2019-03-21T04:18:12.963Z,1027.68
2019-03-21T04:18:39.077Z,1027.72
2019-03-21T04:19:05.244Z,1027.71
2019-03-21T04:19:31.351Z,1027.72
2019-03-21T04:19:57.509Z,1027.73
2019-03-21T04:20:23.620Z,1027.71
2019-03-21T04:20:49.726Z,1027.71
2019-03-21T04:21:15.834Z,1027.73
2019-03-21T04:21:41.946Z,1027.74
2019-03-21T04:22:08.168Z,1027.7
2019-03-21T04:22:34.268Z,1027.74
2019-03-21T04:23:00.407Z,1027.72
2019-03-21T04:23:26.506Z,1027.71
2019-03-21T04:23:52.651Z,1027.73
2019-03-21T04:24:19.812Z,1027.7
2019-03-21T04:24:45.974Z,1027.69
2019-03-21T04:25:12.137Z,1027.71
2019-03-21T04:25:38.330Z,1027.72
2019-03-21T04:26:04.494Z,1027.75
2019-03-21T04:26:30.603Z,1027.72
2019-03-21T04:26:56.703Z,1027.7
2019-03-21T04:27:22.848Z,1027.72
2019-03-21T04:27:48.966Z,1027.67
2019-03-21T04:28:15.100Z,1027.67
2019-03-21T04:28:41.233Z,1027.7
2019-03-21T04:29:07.399Z,1027.7
2019-03-21T04:29:33.521Z,1027.68
2019-03-21T04:29:59.654Z,1027.7
2019-03-21T04:30:25.764Z,1027.69
2019-03-21T04:30:51.871Z,1027.69
2019-03-21T04:31:18.038Z,1027.69
2019-03-21T04:31:44.142Z,1027.68
2019-03-21T04:32:10.278Z,1027.7
2019-03-21T04:32:36.376Z,1027.69
2019-03-21T04:33:02.545Z,1027.74
2019-03-21T04:33:28.707Z,1027.74
2019-03-21T04:33:54.833Z,1027.73
2019-03-21T04:34:20.939Z,1027.71
2019-03-21T04:34:47.069Z,1027.72
2019-03-21T04:35:13.219Z,1027.72
2019-03-21T04:35:39.324Z,1027.71
2019-03-21T04:36:05.434Z,1027.72
2019-03-21T04:36:31.589Z,1027.71
2019-03-21T04:36:57.708Z,1027.71
2019-03-21T04:37:23.813Z,1027.7
2019-03-21T04:37:49.953Z,1027.72
2019-03-21T04:38:16.063Z,1027.72
2019-03-21T04:38:42.212Z,1027.72
2019-03-21T04:39:08.350Z,1027.71
2019-03-21T04:39:34.492Z,1027.66
2019-03-21T04:40:00.627Z,1027.75
2019-03-21T04:40:26.767Z,1027.7
2019-03-21T04:40:52.900Z,1027.7
2019-03-21T04:41:19.074Z,1027.71
2019-03-21T04:41:45.239Z,1027.73
2019-03-21T04:42:11.347Z,1027.73
2019-03-21T04:42:37.456Z,1027.7
2019-03-21T04:43:03.563Z,1027.73
2019-03-21T04:43:29.679Z,1027.68
2019-03-21T04:43:55.814Z,1027.68
2019-03-21T04:44:21.954Z,1027.72
2019-03-21T04:44:48.084Z,1027.71
2019-03-21T04:45:14.196Z,1027.75
2019-03-21T04:45:40.298Z,1027.73
2019-03-21T04:46:07.463Z,1027.71
2019-03-21T04:46:33.571Z,1027.76
2019-03-21T04:46:59.738Z,1027.73
2019-03-21T04:47:25.876Z,1027.74
2019-03-21T04:47:52.017Z,1027.73
2019-03-21T04:48:18.145Z,1027.75
2019-03-21T04:48:44.247Z,1027.72
2019-03-21T04:49:10.361Z,1027.72
2019-03-21T04:49:36.475Z,1027.75
2019-03-21T04:50:02.578Z,1027.72
2019-03-21T04:50:28.688Z,1027.73
2019-03-21T04:50:54.797Z,1027.73
2019-03-21T04:51:20.913Z,1027.76
2019-03-21T04:51:47.030Z,1027.76
2019-03-21T04:52:13.134Z,1027.77
2019-03-21T04:52:39.240Z,1027.76
2019-03-21T04:53:05.380Z,1027.78
2019-03-21T04:53:31.516Z,1027.77
2019-03-21T04:53:58.610Z,1027.82
2019-03-21T04:54:24.755Z,1027.8
2019-03-21T04:54:50.854Z,1027.77
2019-03-21T04:55:16.965Z,1027.82
2019-03-21T04:55:43.071Z,1027.81
2019-03-21T04:56:09.185Z,1027.83
2019-03-21T04:56:35.310Z,1027.8
2019-03-21T04:57:01.448Z,1027.82
2019-03-21T04:57:27.553Z,1027.81
2019-03-21T04:57:53.658Z,1027.8
2019-03-21T04:58:19.803Z,1027.85
2019-03-21T04:58:45.904Z,1027.87
2019-03-21T04:59:12.040Z,1027.79
2019-03-21T04:59:38.186Z,1027.8
2019-03-21T05:00:04.291Z,1027.79
2019-03-21T05:00:30.396Z,1027.81
2019-03-21T05:00:56.533Z,1027.82
2019-03-21T05:01:22.727Z,1027.81
2019-03-21T05:01:48.891Z,1027.81
2019-03-21T05:02:15.000Z,1027.81
2019-03-21T05:02:41.107Z,1027.78
2019-03-21T05:03:07.241Z,1027.78
2019-03-21T05:03:33.352Z,1027.85
2019-03-21T05:03:59.485Z,1027.79
2019-03-21T05:04:25.602Z,1027.77
2019-03-21T05:04:51.701Z,1027.82
2019-03-21T05:05:17.840Z,1027.8
2019-03-21T05:05:43.941Z,1027.81
2019-03-21T05:06:10.088Z,1027.78
2019-03-21T05:06:37.214Z,1027.81
2019-03-21T05:07:03.422Z,1027.8
2019-03-21T05:07:29.555Z,1027.86
2019-03-21T05:07:55.673Z,1027.8
2019-03-21T05:08:21.782Z,1027.82
2019-03-21T05:08:47.889Z,1027.82
2019-03-21T05:09:13.998Z,1027.81
2019-03-21T05:09:40.135Z,1027.83
2019-03-21T05:10:06.240Z,1027.8
2019-03-21T05:10:32.383Z,1027.83
2019-03-21T05:10:58.491Z,1027.77
2019-03-21T05:11:24.600Z,1027.82
2019-03-21T05:11:50.707Z,1027.82
2019-03-21T05:12:16.813Z,1027.83
2019-03-21T05:12:42.923Z,1027.85
2019-03-21T05:13:09.029Z,1027.82
2019-03-21T05:13:35.164Z,1027.82
2019-03-21T05:14:01.268Z,1027.85
2019-03-21T05:14:27.379Z,1027.87
2019-03-21T05:14:53.486Z,1027.86
2019-03-21T05:15:19.591Z,1027.81
2019-03-21T05:15:45.699Z,1027.82
2019-03-21T05:16:14.851Z,1027.81
2019-03-21T05:16:39.901Z,1027.84
2019-03-21T05:17:06.018Z,1027.84
2019-03-21T05:17:32.128Z,1027.85
2019-03-21T05:17:58.234Z,1027.8
2019-03-21T05:18:24.360Z,1027.84
2019-03-21T05:18:50.558Z,1027.83
2019-03-21T05:19:16.665Z,1027.84
2019-03-21T05:19:42.797Z,1027.85
2019-03-21T05:20:08.911Z,1027.89
2019-03-21T05:20:35.398Z,1027.86
2019-03-21T05:21:01.511Z,1027.82
2019-03-21T05:21:27.653Z,1027.83
2019-03-21T05:21:53.753Z,1027.85
2019-03-21T05:22:19.879Z,1027.83
2019-03-21T05:22:46.008Z,1027.84
2019-03-21T05:23:12.144Z,1027.84
2019-03-21T05:23:38.259Z,1027.81
2019-03-21T05:24:04.368Z,1027.83